X  Tanca Dades meteorològiques de l'aviació METAR        LELL Aeropuerto de Barcelona Josep Tarradellas
Temperatura
14°C Temperatura
1°C Rosada
41% Humitat



Vent
7 KM/H
5 MPH
2 M/S
4 NUS



170°
S
Condicions actuals

Mostly Sunny Majoritàriament assolellat
Pressió 1015 (hPa) - 29.97 (inHg)
Visibilitat 6 (milla) - 10 (km)
Aeroport
Codi aeroport LELL

Ubicació: Aeropuerto de Barcelona Josep Tarradellas
Distància: 20 (km)

Metar:
METAR LELL 281730Z 17004KT CAVOK 14/01 Q1015

Temps: 28-02-2024 18:30 CET